createdAt,value
2018-06-17T00:00:50.000Z,20.70
2018-06-17T00:03:24.574Z,20.60
2018-06-17T00:05:58.307Z,20.60
2018-06-17T00:08:32.789Z,20.60
2018-06-17T00:11:07.393Z,20.60
2018-06-17T00:13:41.030Z,20.60
2018-06-17T00:16:15.610Z,20.60
2018-06-17T00:18:49.232Z,20.60
2018-06-17T00:21:23.744Z,20.70
2018-06-17T00:23:57.367Z,20.60
2018-06-17T00:26:31.080Z,20.60
2018-06-17T00:29:04.776Z,20.70
2018-06-17T00:31:38.585Z,20.60
2018-06-17T00:34:12.424Z,20.60
2018-06-17T00:36:46.177Z,20.60
2018-06-17T00:39:20.676Z,20.60
2018-06-17T00:41:54.343Z,20.60
2018-06-17T00:44:28.813Z,20.60
2018-06-17T00:47:02.480Z,20.60
2018-06-17T00:49:37.068Z,20.60
2018-06-17T00:52:10.923Z,20.60
2018-06-17T00:54:45.521Z,20.60
2018-06-17T01:00:14.714Z,20.60
2018-06-17T01:02:49.207Z,20.60
2018-06-17T01:05:22.837Z,20.60
2018-06-17T01:07:57.436Z,20.60
2018-06-17T01:10:31.088Z,20.60
2018-06-17T01:13:05.564Z,20.60
2018-06-17T01:15:39.179Z,20.60
2018-06-17T01:18:12.869Z,20.60
2018-06-17T01:20:47.415Z,20.60
2018-06-17T01:23:21.240Z,20.60
2018-06-17T01:25:55.971Z,20.60
2018-06-17T01:28:29.730Z,20.60
2018-06-17T01:31:03.576Z,20.60
2018-06-17T01:33:37.964Z,20.50
2018-06-17T01:36:11.633Z,20.50
2018-06-17T01:38:45.443Z,20.50
2018-06-17T01:41:20.060Z,20.40
2018-06-17T01:43:53.841Z,20.40
2018-06-17T01:46:27.576Z,20.40
2018-06-17T01:49:01.347Z,20.40
2018-06-17T01:51:35.199Z,20.40
2018-06-17T01:54:08.955Z,20.30
2018-06-17T01:56:42.693Z,20.20
2018-06-17T01:59:17.363Z,20.20
2018-06-17T02:01:51.124Z,20.20
2018-06-17T02:07:32.635Z,20.30
2018-06-17T02:13:00.693Z,20.30
2018-06-17T02:15:35.273Z,20.30
2018-06-17T02:18:08.905Z,20.30
2018-06-17T02:20:43.306Z,20.30
2018-06-17T02:23:17.949Z,20.30
2018-06-17T02:25:52.555Z,20.30
2018-06-17T02:28:26.209Z,20.30
2018-06-17T02:31:00.044Z,20.30
2018-06-17T02:33:33.869Z,20.30
2018-06-17T02:36:07.681Z,20.30
2018-06-17T02:38:41.475Z,20.30
2018-06-17T02:41:15.907Z,20.30
2018-06-17T02:43:50.443Z,20.30
2018-06-17T02:49:36.999Z,20.30
2018-06-17T02:52:16.193Z,20.30
2018-06-17T02:54:50.622Z,20.30
2018-06-17T02:57:24.319Z,20.30
2018-06-17T02:59:58.055Z,20.30
2018-06-17T03:02:31.727Z,20.20
2018-06-17T03:05:05.337Z,20.20
2018-06-17T03:07:39.132Z,20.20
2018-06-17T03:10:12.907Z,20.20
2018-06-17T03:12:46.764Z,20.20
2018-06-17T03:15:20.500Z,20.10
2018-06-17T03:17:54.277Z,20.00
2018-06-17T03:20:28.878Z,19.90
2018-06-17T03:23:03.394Z,19.90
2018-06-17T03:28:44.004Z,19.80
2018-06-17T03:31:17.608Z,19.80
2018-06-17T03:33:52.203Z,19.80
2018-06-17T03:36:26.032Z,19.70
2018-06-17T03:38:59.716Z,19.80
2018-06-17T03:41:33.492Z,19.80
2018-06-17T03:44:08.055Z,19.70
2018-06-17T03:46:41.923Z,19.70
2018-06-17T03:49:16.371Z,19.70
2018-06-17T03:51:50.027Z,19.70
2018-06-17T03:54:23.862Z,19.70
2018-06-17T03:56:58.361Z,19.70
2018-06-17T03:59:32.831Z,19.70
2018-06-17T04:02:06.527Z,19.70
2018-06-17T04:04:40.180Z,19.80
2018-06-17T04:07:14.061Z,19.80
2018-06-17T04:09:47.901Z,19.90
2018-06-17T04:12:22.354Z,19.80
2018-06-17T04:14:55.994Z,19.80
2018-06-17T04:17:29.722Z,19.90
2018-06-17T04:20:04.304Z,19.90
2018-06-17T04:22:38.131Z,19.90
2018-06-17T04:25:11.965Z,19.90
2018-06-17T04:27:45.737Z,19.90
2018-06-17T04:30:19.339Z,19.90
2018-06-17T04:32:53.089Z,19.90
2018-06-17T04:35:26.798Z,19.90
2018-06-17T04:38:00.609Z,19.90
2018-06-17T04:40:34.376Z,19.90
2018-06-17T04:43:08.163Z,19.80
2018-06-17T04:45:41.903Z,19.80
2018-06-17T04:48:16.434Z,19.60
2018-06-17T04:50:50.239Z,19.60
2018-06-17T04:53:23.988Z,19.60
2018-06-17T04:55:57.727Z,19.60
2018-06-17T04:58:31.587Z,19.60
2018-06-17T05:01:05.306Z,19.60
2018-06-17T05:03:39.088Z,19.60
2018-06-17T05:06:12.868Z,19.60
2018-06-17T05:08:46.659Z,19.60
2018-06-17T05:11:20.447Z,19.50
2018-06-17T05:13:54.214Z,19.50
2018-06-17T05:16:28.041Z,19.40
2018-06-17T05:19:01.803Z,19.40
2018-06-17T05:21:36.370Z,19.40
2018-06-17T05:24:09.968Z,19.40
2018-06-17T05:26:43.805Z,19.50
2018-06-17T05:29:17.461Z,19.50
2018-06-17T05:31:51.194Z,19.40
2018-06-17T05:34:25.727Z,19.40
2018-06-17T05:36:59.509Z,19.40
2018-06-17T05:39:34.052Z,19.30
2018-06-17T05:42:07.916Z,19.30
2018-06-17T05:44:41.577Z,19.30
2018-06-17T05:47:15.409Z,19.20
2018-06-17T05:49:50.073Z,19.10
2018-06-17T05:52:23.751Z,19.10
2018-06-17T05:54:58.306Z,19.10
2018-06-17T05:57:32.143Z,19.00
2018-06-17T06:00:05.848Z,19.10
2018-06-17T06:02:39.572Z,19.20
2018-06-17T06:05:13.350Z,19.20
2018-06-17T06:07:47.068Z,19.20
2018-06-17T06:10:20.941Z,19.30
2018-06-17T06:12:55.482Z,19.30
2018-06-17T06:15:29.260Z,19.30
2018-06-17T06:18:02.860Z,19.30
2018-06-17T06:20:36.505Z,19.30
2018-06-17T06:23:10.148Z,19.20
2018-06-17T06:25:43.779Z,19.10
2018-06-17T06:28:17.604Z,19.10
2018-06-17T06:30:52.064Z,19.10
2018-06-17T06:33:25.929Z,19.10
2018-06-17T06:36:00.451Z,19.30
2018-06-17T06:38:34.956Z,19.20
2018-06-17T06:41:08.665Z,19.20
2018-06-17T06:43:42.506Z,19.20
2018-06-17T06:46:16.380Z,19.10
2018-06-17T06:48:50.104Z,19.10
2018-06-17T06:51:23.916Z,19.20
2018-06-17T06:53:57.620Z,19.30
2018-06-17T06:56:31.351Z,19.50
2018-06-17T06:59:05.893Z,19.80
2018-06-17T07:05:00.163Z,20.00
2018-06-17T07:21:18.178Z,20.20
2018-06-17T07:23:52.795Z,20.50
2018-06-17T07:26:38.290Z,20.40
2018-06-17T07:32:15.230Z,20.70
2018-06-17T07:34:48.984Z,20.80
2018-06-17T07:37:22.813Z,20.90
2018-06-17T07:39:56.596Z,21.00
2018-06-17T07:42:30.377Z,21.00
2018-06-17T07:45:04.901Z,21.30
2018-06-17T07:47:38.752Z,21.20
2018-06-17T07:50:24.449Z,21.30
2018-06-17T07:53:10.111Z,21.30
2018-06-17T07:55:43.755Z,21.20
2018-06-17T07:58:17.387Z,21.30
2018-06-17T08:00:51.993Z,21.20
2018-06-17T08:03:25.640Z,21.20
2018-06-17T08:05:59.275Z,21.40
2018-06-17T08:08:33.747Z,22.00
2018-06-17T08:11:08.321Z,22.80
2018-06-17T08:13:42.120Z,22.80
2018-06-17T08:16:16.700Z,24.60
2018-06-17T08:18:50.439Z,24.50
2018-06-17T08:21:24.965Z,25.60
2018-06-17T08:23:58.735Z,25.60
2018-06-17T08:26:32.425Z,25.20
2018-06-17T08:29:06.280Z,24.30
2018-06-17T08:31:40.036Z,23.30
2018-06-17T08:34:13.822Z,23.40
2018-06-17T08:36:47.675Z,24.10
2018-06-17T08:39:21.373Z,25.00
2018-06-17T08:41:55.117Z,25.60
2018-06-17T08:44:29.680Z,25.40
2018-06-17T08:47:03.316Z,25.30
2018-06-17T08:49:37.132Z,25.60
2018-06-17T08:52:10.935Z,25.80
2018-06-17T08:54:44.686Z,25.70
2018-06-17T08:57:19.250Z,24.40
2018-06-17T08:59:52.952Z,24.40
2018-06-17T09:02:26.792Z,24.50
2018-06-17T09:05:01.451Z,25.20
2018-06-17T09:07:35.256Z,25.20
2018-06-17T09:10:09.125Z,25.10
2018-06-17T09:12:43.745Z,24.80
2018-06-17T09:15:17.406Z,24.70
2018-06-17T09:17:51.266Z,24.50
2018-06-17T09:20:25.068Z,24.40
2018-06-17T09:22:59.561Z,23.60
2018-06-17T09:25:33.361Z,23.60
2018-06-17T09:28:07.160Z,23.60
2018-06-17T09:30:40.771Z,23.70
2018-06-17T09:33:15.180Z,24.80
2018-06-17T09:35:49.010Z,24.80
2018-06-17T09:38:22.844Z,25.60
2018-06-17T09:40:57.325Z,26.60
2018-06-17T09:43:31.197Z,26.60
2018-06-17T09:46:04.956Z,26.90
2018-06-17T09:48:39.483Z,27.10
2018-06-17T09:51:13.413Z,27.10
2018-06-17T09:53:47.209Z,27.00
2018-06-17T09:56:21.819Z,25.80
2018-06-17T09:58:55.631Z,25.70
2018-06-17T10:01:29.419Z,25.50
2018-06-17T10:04:03.868Z,25.80
2018-06-17T10:06:37.594Z,25.80
2018-06-17T10:09:11.412Z,26.60
2018-06-17T10:11:45.079Z,27.20
2018-06-17T10:14:18.840Z,27.20
2018-06-17T10:16:52.705Z,27.10
2018-06-17T10:19:26.551Z,27.10
2018-06-17T10:22:00.320Z,27.30
2018-06-17T10:24:34.917Z,27.10
2018-06-17T10:27:09.425Z,27.20
2018-06-17T10:29:43.949Z,27.50
2018-06-17T10:32:18.556Z,27.90
2018-06-17T10:34:52.322Z,27.80
2018-06-17T10:37:26.089Z,26.80
2018-06-17T10:39:59.903Z,26.40
2018-06-17T10:42:33.631Z,26.60
2018-06-17T10:45:07.395Z,26.20
2018-06-17T10:47:41.184Z,26.30
2018-06-17T10:50:14.986Z,26.70
2018-06-17T10:52:48.744Z,26.70
2018-06-17T10:55:23.360Z,27.50
2018-06-17T10:57:57.143Z,27.50
2018-06-17T11:00:30.913Z,27.50
2018-06-17T11:03:04.624Z,27.80
2018-06-17T11:05:38.514Z,27.60
2018-06-17T11:08:12.270Z,27.10
2018-06-17T11:10:46.079Z,27.50
2018-06-17T11:13:19.791Z,27.40
2018-06-17T11:15:53.580Z,27.20
2018-06-17T11:18:27.382Z,26.70
2018-06-17T11:21:02.016Z,25.70
2018-06-17T11:23:35.831Z,25.70
2018-06-17T11:26:09.536Z,25.50
2018-06-17T11:28:44.681Z,25.60
2018-06-17T11:31:18.516Z,25.60
2018-06-17T11:33:53.081Z,25.40
2018-06-17T11:36:26.888Z,25.30
2018-06-17T11:39:00.666Z,25.20
2018-06-17T11:41:34.463Z,25.20
2018-06-17T11:44:08.296Z,25.30
2018-06-17T11:46:42.100Z,25.50
2018-06-17T11:49:15.839Z,25.50
2018-06-17T11:51:49.647Z,25.30
2018-06-17T11:54:23.397Z,25.60
2018-06-17T11:56:57.220Z,25.90
2018-06-17T11:59:31.005Z,25.60
2018-06-17T12:02:04.839Z,25.50
2018-06-17T12:04:38.609Z,25.60
2018-06-17T12:07:12.423Z,25.70
2018-06-17T12:09:46.098Z,25.90
2018-06-17T12:12:19.884Z,25.90
2018-06-17T12:14:53.695Z,25.80
2018-06-17T12:17:28.341Z,25.70
2018-06-17T12:20:02.090Z,25.70
2018-06-17T12:22:36.762Z,26.20
2018-06-17T12:25:10.354Z,26.20
2018-06-17T12:27:44.132Z,25.90
2018-06-17T12:30:17.813Z,25.80
2018-06-17T12:32:52.377Z,25.80
2018-06-17T12:35:26.215Z,25.80
2018-06-17T12:37:59.916Z,25.80
2018-06-17T12:40:34.591Z,25.90
2018-06-17T12:43:08.425Z,25.90
2018-06-17T12:45:42.125Z,25.60
2018-06-17T12:48:15.954Z,25.70
2018-06-17T12:50:50.543Z,25.60
2018-06-17T12:53:24.295Z,25.60
2018-06-17T12:55:58.017Z,25.40
2018-06-17T12:58:31.757Z,25.20
2018-06-17T13:01:05.683Z,25.10
2018-06-17T13:03:39.391Z,25.10
2018-06-17T13:06:13.263Z,25.00
2018-06-17T13:08:46.946Z,24.90
2018-06-17T13:11:21.630Z,25.10
2018-06-17T13:13:55.376Z,25.00
2018-06-17T13:16:29.094Z,25.10
2018-06-17T13:19:02.940Z,25.00
2018-06-17T13:21:36.619Z,24.90
2018-06-17T13:24:11.195Z,25.00
2018-06-17T13:26:44.852Z,25.00
2018-06-17T13:29:19.431Z,25.20
2018-06-17T13:31:53.814Z,25.00
2018-06-17T13:34:28.301Z,25.00
2018-06-17T13:37:02.836Z,24.90
2018-06-17T13:39:37.423Z,25.00
2018-06-17T13:42:11.173Z,25.00
2018-06-17T13:44:46.753Z,25.40
2018-06-17T13:47:20.491Z,25.60
2018-06-17T13:49:55.055Z,25.70
2018-06-17T13:52:29.561Z,25.80
2018-06-17T13:55:03.436Z,25.80
2018-06-17T13:57:37.107Z,25.40
2018-06-17T14:00:10.956Z,25.40
2018-06-17T14:02:44.799Z,25.30
2018-06-17T14:05:18.507Z,25.50
2018-06-17T14:07:52.280Z,25.50
2018-06-17T14:10:26.040Z,25.60
2018-06-17T14:13:01.297Z,25.70
2018-06-17T14:15:35.056Z,25.90
2018-06-17T14:18:09.664Z,26.00
2018-06-17T14:20:44.237Z,25.70
2018-06-17T14:23:17.923Z,25.70
2018-06-17T14:25:52.568Z,25.30
2018-06-17T14:28:26.363Z,25.30
2018-06-17T14:31:00.212Z,25.40
2018-06-17T14:33:34.028Z,25.20
2018-06-17T14:36:07.784Z,25.20
2018-06-17T14:38:41.567Z,25.20
2018-06-17T14:41:15.295Z,25.10
2018-06-17T14:46:56.805Z,25.10
2018-06-17T15:02:51.751Z,24.50
2018-06-17T15:05:26.304Z,24.30
2018-06-17T15:07:59.956Z,24.30
2018-06-17T15:10:33.707Z,24.40
2018-06-17T15:13:07.556Z,24.20
2018-06-17T15:15:41.366Z,24.20
2018-06-17T15:18:15.170Z,24.00
2018-06-17T15:20:49.740Z,24.10
2018-06-17T15:23:23.572Z,24.10
2018-06-17T15:25:57.412Z,24.20
2018-06-17T15:28:31.013Z,24.20
2018-06-17T15:31:04.906Z,24.00
2018-06-17T15:36:54.679Z,24.00
2018-06-17T15:39:29.121Z,24.00
2018-06-17T15:42:02.802Z,23.90
2018-06-17T15:44:36.597Z,23.90
2018-06-17T15:47:10.347Z,23.70
2018-06-17T15:49:44.199Z,23.70
2018-06-17T15:52:17.887Z,23.70
2018-06-17T15:54:51.754Z,23.80
2018-06-17T15:57:25.896Z,23.80
2018-06-17T15:59:59.700Z,23.70
2018-06-17T16:02:33.444Z,23.50
2018-06-17T16:05:07.966Z,23.40
2018-06-17T16:07:41.772Z,23.40
2018-06-17T16:10:15.385Z,23.50
2018-06-17T16:12:49.903Z,23.80
2018-06-17T16:18:30.865Z,23.90
2018-06-17T16:21:05.433Z,23.80
2018-06-17T16:23:39.312Z,23.80
2018-06-17T16:26:13.026Z,23.80
2018-06-17T16:28:47.526Z,23.80
2018-06-17T16:31:21.420Z,23.80
2018-06-17T16:33:55.136Z,23.70
2018-06-17T16:36:28.867Z,23.80
2018-06-17T16:39:02.597Z,23.70
2018-06-17T16:41:36.343Z,23.50
2018-06-17T16:44:10.193Z,23.50
2018-06-17T16:46:44.669Z,23.00
2018-06-17T16:49:18.441Z,23.00
2018-06-17T16:54:53.552Z,22.90
2018-06-17T16:57:44.198Z,22.80
2018-06-17T17:00:17.892Z,22.90
2018-06-17T17:02:51.551Z,23.00
2018-06-17T17:05:25.440Z,23.10
2018-06-17T17:07:59.198Z,23.20
2018-06-17T17:10:33.619Z,23.00
2018-06-17T17:13:07.440Z,23.00
2018-06-17T17:15:41.348Z,23.00
2018-06-17T17:18:15.843Z,23.10
2018-06-17T17:20:49.684Z,23.00
2018-06-17T17:23:23.547Z,23.10
2018-06-17T17:25:57.172Z,22.90
2018-06-17T17:28:30.916Z,22.90
2018-06-17T17:31:04.784Z,22.90
2018-06-17T17:36:44.934Z,23.00
2018-06-17T17:39:18.594Z,23.00
2018-06-17T17:41:52.263Z,23.00
2018-06-17T17:44:26.902Z,23.00
2018-06-17T17:49:54.579Z,22.80
2018-06-17T17:52:29.161Z,22.80
2018-06-17T17:55:03.592Z,22.70
2018-06-17T17:57:37.336Z,22.70
2018-06-17T18:00:11.056Z,22.70
2018-06-17T18:02:45.004Z,22.60
2018-06-17T18:05:19.416Z,22.60
2018-06-17T18:07:53.999Z,22.60
2018-06-17T18:10:27.784Z,22.60
2018-06-17T18:13:01.744Z,22.70
2018-06-17T18:15:35.543Z,22.60
2018-06-17T18:18:09.401Z,22.60
2018-06-17T18:20:43.222Z,22.50
2018-06-17T18:23:16.936Z,22.40
2018-06-17T18:25:50.775Z,22.30
2018-06-17T18:31:18.662Z,22.40
2018-06-17T18:34:08.204Z,22.20
2018-06-17T18:36:42.055Z,22.10
2018-06-17T18:39:15.864Z,22.10
2018-06-17T18:41:49.591Z,22.20
2018-06-17T18:44:23.490Z,22.20
2018-06-17T18:46:57.267Z,22.10
2018-06-17T18:49:31.088Z,22.10
2018-06-17T18:52:04.989Z,22.10
2018-06-17T18:54:38.926Z,22.20
2018-06-17T18:57:12.765Z,22.20
2018-06-17T18:59:47.318Z,22.20
2018-06-17T19:02:20.987Z,22.10
2018-06-17T19:04:54.704Z,22.00
2018-06-17T19:07:28.606Z,22.00
2018-06-17T19:13:10.453Z,21.80
2018-06-17T19:15:59.925Z,21.80
2018-06-17T19:18:34.414Z,21.70
2018-06-17T19:21:08.118Z,21.70
2018-06-17T19:23:41.961Z,21.70
2018-06-17T19:26:15.753Z,21.70
2018-06-17T19:28:49.527Z,21.70
2018-06-17T19:31:23.368Z,21.70
2018-06-17T19:33:57.061Z,21.70
2018-06-17T19:36:31.191Z,21.60
2018-06-17T19:39:04.923Z,21.70
2018-06-17T19:41:38.660Z,21.70
2018-06-17T19:44:12.993Z,21.60
2018-06-17T19:46:46.794Z,21.60
2018-06-17T19:49:20.533Z,21.50
2018-06-17T19:55:04.516Z,21.30
2018-06-17T19:57:56.085Z,21.30
2018-06-17T20:00:29.857Z,21.30
2018-06-17T20:03:03.537Z,21.30
2018-06-17T20:05:38.163Z,21.20
2018-06-17T20:08:11.969Z,21.10
2018-06-17T20:10:46.493Z,21.20
2018-06-17T20:13:20.144Z,21.20
2018-06-17T20:15:53.940Z,21.20
2018-06-17T20:18:27.548Z,21.10
2018-06-17T20:21:01.214Z,21.00
2018-06-17T20:23:34.986Z,21.00
2018-06-17T20:26:09.565Z,21.00
2018-06-17T20:28:43.223Z,21.00
2018-06-17T20:31:17.747Z,20.90
2018-06-17T20:36:52.585Z,20.90
2018-06-17T20:42:24.148Z,20.90
2018-06-17T20:44:58.719Z,20.90
2018-06-17T20:47:32.559Z,20.90
2018-06-17T20:50:07.050Z,20.90
2018-06-17T20:52:41.493Z,20.80
2018-06-17T20:55:15.252Z,20.80
2018-06-17T20:57:49.021Z,20.60
2018-06-17T21:00:23.494Z,20.50
2018-06-17T21:02:57.263Z,20.40
2018-06-17T21:05:31.111Z,20.50
2018-06-17T21:08:04.923Z,20.40
2018-06-17T21:10:38.732Z,20.50
2018-06-17T21:13:12.572Z,20.40
2018-06-17T21:15:46.305Z,20.20
2018-06-17T21:18:20.651Z,20.10
2018-06-17T21:23:52.892Z,20.10
2018-06-17T21:26:33.367Z,20.10
2018-06-17T21:29:07.119Z,20.10
2018-06-17T21:31:41.033Z,20.10
2018-06-17T21:34:14.800Z,20.00
2018-06-17T21:36:49.288Z,19.90
2018-06-17T21:39:23.131Z,19.90
2018-06-17T21:41:56.902Z,19.80
2018-06-17T21:44:30.609Z,19.80
2018-06-17T21:47:05.243Z,19.70
2018-06-17T21:49:38.922Z,19.70
2018-06-17T21:52:12.515Z,19.80
2018-06-17T21:54:47.052Z,19.90
2018-06-17T21:57:20.816Z,19.90
2018-06-17T21:59:54.594Z,19.90
2018-06-17T22:02:28.385Z,19.90
2018-06-17T22:05:02.187Z,19.90
2018-06-17T22:07:36.025Z,19.80
2018-06-17T22:13:02.580Z,19.70
2018-06-17T22:15:51.079Z,19.70
2018-06-17T22:18:25.610Z,19.70
2018-06-17T22:20:59.248Z,19.70
2018-06-17T22:23:33.075Z,19.70
2018-06-17T22:26:06.903Z,19.70
2018-06-17T22:28:40.640Z,19.70
2018-06-17T22:31:14.413Z,19.60
2018-06-17T22:33:48.084Z,19.50
2018-06-17T22:36:22.623Z,19.50
2018-06-17T22:38:56.266Z,19.50
2018-06-17T22:41:30.748Z,19.30
2018-06-17T22:44:04.461Z,19.30
2018-06-17T22:46:38.310Z,19.30
2018-06-17T22:49:12.084Z,19.30
2018-06-17T22:51:45.947Z,19.20
2018-06-17T22:57:15.752Z,19.10
2018-06-17T23:02:56.003Z,19.10
2018-06-17T23:05:50.337Z,19.00
2018-06-17T23:08:42.752Z,19.00
2018-06-17T23:11:17.338Z,19.10
2018-06-17T23:13:51.881Z,19.10
2018-06-17T23:16:25.740Z,19.10
2018-06-17T23:18:59.471Z,19.10
2018-06-17T23:21:33.361Z,19.10
2018-06-17T23:24:06.966Z,19.10
2018-06-17T23:26:40.668Z,19.00
2018-06-17T23:29:15.201Z,19.00
2018-06-17T23:31:48.979Z,18.90
2018-06-17T23:34:22.809Z,18.90
2018-06-17T23:36:56.538Z,18.90
2018-06-17T23:39:30.952Z,18.80
2018-06-17T23:42:04.805Z,18.80
2018-06-17T23:44:39.363Z,18.80
2018-06-17T23:50:22.003Z,18.80
2018-06-17T23:56:02.752Z,18.80
2018-06-17T23:58:36.480Z,18.80
